Humidity-temperature Sensor

Selected Measurement Type: Relative Humidity

 
Relative Humidity [%]     6 entries per hour
Showing data from 5/25/2023 (00:00:00 Z) to 5/24/2023 (00:01:00 Z)
Previous Next [ Day | 3-Days | 7-Days ]
First Last
Prev [ Day | 3-Days | 7-Days ] Next
First Last

Start Time:     :
End Time:     :     
Time (in GMT) :00 :50 :40 :30 :20 :10
Previous Next [ Day | 3-Days | 7-Days ]
First Last
Prev [ Day | 3-Days | 7-Days ] Next
First Last


123 => good data
MM => data is determined as missing
-- => data not received/configured
Back to Top Back to Top
5/25/2023 00:00 to 23:10 80.85 84.75 83.06 81.02 81.39 82.60
5/24/2023 23:00 to 22:10 82.56 82.29 80.66 81.41 79.95 80.45
5/24/2023 22:00 to 21:10 80.77 79.66 79.60 78.82 80.12 82.23
5/24/2023 21:00 to 20:10 82.79 82.83 81.70 81.27 81.41 80.12
5/24/2023 20:00 to 19:10 79.97 81.35 80.72 79.91 79.49 80.95
5/24/2023 19:00 to 18:10 81.37 81.73 82.96 79.80 81.91 82.06
5/24/2023 18:00 to 17:10 82.16 81.45 80.97 82.83 81.31 83.06
5/24/2023 17:00 to 16:10 83.27 82.02 85.71 83.81 86.26 89.32
5/24/2023 16:00 to 15:10 87.49 86.82 87.74 87.01 86.30 87.26
5/24/2023 15:00 to 14:10 87.55 87.55 87.15 86.63 85.61 87.55
5/24/2023 14:00 to 13:10 89.78 82.23 81.62 81.85 81.66 80.81
5/24/2023 13:00 to 12:10 82.87 81.77 80.85 81.31 81.87 81.31
5/24/2023 12:00 to 11:10 81.85 81.29 82.75 82.29 81.31 81.56
5/24/2023 11:00 to 10:10 82.08 83.04 81.20 80.77 80.47 82.64
5/24/2023 10:00 to 9:10 82.62 81.93 80.22 80.18 83.00 82.04
5/24/2023 09:00 to 8:10 80.14 82.10 83.56 83.35 82.33 83.48
5/24/2023 08:00 to 7:10 83.56 82.83 81.85 82.77 82.21 81.83
5/24/2023 07:00 to 6:10 81.73 82.69 82.60 80.81 82.98 83.46
5/24/2023 06:00 to 5:10 88.18 85.94 85.19 84.42 83.40 83.25
5/24/2023 05:00 to 4:10 84.06 83.71 81.89 82.83 81.52 82.83
5/24/2023 04:00 to 3:10 81.70 82.50 83.52 84.71 85.50 84.88
5/24/2023 03:00 to 2:10 84.17 82.56 82.33 84.52 87.01 86.11
5/24/2023 02:00 to 1:10 87.32 86.71 81.41 82.08 80.68 79.62
5/24/2023 01:00 to 0:10 78.72 79.45 80.58 80.56 80.77 80.26